Time;durP1;ratioP1;P1;durP2;ratioP2;P2;SDS_P1;SDS_P2;PMS_P1;PMS_P2;Temp;Humidity;BMP_temperature;BMP_pressure;BME280_temperature;BME280_humidity;BME280_pressure;Samples;Min_cycle;Max_cycle;Signal;HPM_P1;HPM_P2
2022/06/29 00:00:15;;;;;;;2.50;0.90;;;;;24.20;101523.00;;;;5052429;28;20206;-76
2022/06/29 00:02:43;;;;;;;1.00;0.68;;;;;24.20;101514.00;;;;5052402;28;20199;-77
2022/06/29 00:05:12;;;;;;;1.35;0.80;;;;;24.20;101519.00;;;;5061225;28;20217;-77
2022/06/29 00:07:41;;;;;;;1.52;0.68;;;;;24.20;101514.00;;;;5058935;28;20226;-77
2022/06/29 00:10:10;;;;;;;1.88;0.90;;;;;24.20;101523.00;;;;5045670;28;20195;-76
2022/06/29 00:12:38;;;;;;;2.30;0.77;;;;;24.20;101514.00;;;;5057991;28;20208;-77
2022/06/29 00:15:08;;;;;;;1.05;0.82;;;;;24.10;101512.00;;;;5055870;28;20222;-77
2022/06/29 00:17:35;;;;;;;2.97;1.55;;;;;24.10;101512.00;;;;5061635;28;20195;-76
2022/06/29 00:20:06;;;;;;;0.98;0.65;;;;;24.10;101510.00;;;;5052628;28;20212;-77
2022/06/29 00:22:35;;;;;;;2.83;0.80;;;;;24.10;101515.00;;;;5047043;28;20214;-76
2022/06/29 00:25:03;;;;;;;1.48;0.70;;;;;24.10;101504.00;;;;5050003;28;20272;-77
2022/06/29 00:27:32;;;;;;;3.60;0.88;;;;;24.10;101506.00;;;;5049690;28;20195;-76
2022/06/29 00:30:00;;;;;;;2.22;1.10;;;;;24.10;101505.00;;;;5058365;28;20787;-76
2022/06/29 00:32:28;;;;;;;1.40;0.60;;;;;24.00;101509.00;;;;5048984;28;20200;-76
2022/06/29 00:34:56;;;;;;;0.63;0.50;;;;;24.00;101509.00;;;;5064811;28;20222;-77
2022/06/29 00:37:23;;;;;;;0.80;0.75;;;;;24.00;101497.00;;;;5049844;28;20191;-76
2022/06/29 00:39:50;;;;;;;0.90;0.60;;;;;24.00;101494.00;;;;5047161;28;20203;-76
2022/06/29 00:42:18;;;;;;;0.55;0.50;;;;;24.00;101497.00;;;;5053148;28;20195;-77
2022/06/29 00:44:45;;;;;;;1.05;0.85;;;;;24.00;101499.00;;;;5048163;28;20207;-77
2022/06/29 00:47:12;;;;;;;2.13;0.80;;;;;24.00;101496.00;;;;5054273;28;20202;-76
2022/06/29 00:49:42;;;;;;;1.90;0.73;;;;;23.90;101485.00;;;;5060654;28;20203;-76
2022/06/29 00:52:11;;;;;;;0.98;0.70;;;;;23.90;101489.00;;;;5047144;28;20215;-77
2022/06/29 00:54:39;;;;;;;3.67;1.15;;;;;23.90;101487.00;;;;5046199;28;20733;-77
2022/06/29 00:57:09;;;;;;;2.67;0.98;;;;;23.90;101485.00;;;;5060757;28;20191;-77
2022/06/29 00:59:44;;;;;;;1.30;0.60;;;;;23.80;101485.00;;;;5058915;28;20198;-77
2022/06/29 01:02:12;;;;;;;1.02;0.65;;;;;23.90;101481.00;;;;5059060;28;20202;-76
2022/06/29 01:04:41;;;;;;;2.13;0.60;;;;;23.80;101478.00;;;;5050693;28;20696;-76
2022/06/29 01:07:09;;;;;;;2.97;0.70;;;;;23.80;101481.00;;;;5068149;28;20203;-76
2022/06/29 01:09:37;;;;;;;0.98;0.60;;;;;23.80;101476.00;;;;5064298;28;20209;-76
2022/06/29 01:12:05;;;;;;;1.15;0.57;;;;;23.80;101478.00;;;;5057432;28;20204;-76
2022/06/29 01:14:32;;;;;;;1.38;0.90;;;;;23.80;101476.00;;;;5051505;28;20220;-77
2022/06/29 01:17:00;;;;;;;1.33;0.90;;;;;23.80;101470.00;;;;5054817;28;20196;-77
2022/06/29 01:19:27;;;;;;;1.35;0.80;;;;;23.70;101470.00;;;;5054853;28;20203;-76
2022/06/29 01:22:01;;;;;;;0.80;0.60;;;;;23.70;101466.00;;;;5058839;28;20203;-76
2022/06/29 01:24:30;;;;;;;1.08;0.80;;;;;23.70;101477.00;;;;5047581;28;20208;-77
2022/06/29 01:26:57;;;;;;;2.90;0.70;;;;;23.70;101472.00;;;;5048650;28;20206;-76
2022/06/29 01:29:24;;;;;;;1.00;0.73;;;;;23.70;101465.00;;;;5047881;28;20302;-76
2022/06/29 01:31:55;;;;;;;1.23;0.75;;;;;23.60;101469.00;;;;5051368;28;20811;-76
2022/06/29 01:34:22;;;;;;;1.17;0.75;;;;;23.60;101465.00;;;;5057168;28;20215;-77
2022/06/29 01:36:50;;;;;;;1.90;0.82;;;;;23.60;101464.00;;;;5054003;28;20203;-76
2022/06/29 01:39:17;;;;;;;1.30;0.77;;;;;23.50;101457.00;;;;5059766;28;20211;-76
2022/06/29 01:41:46;;;;;;;2.13;1.10;;;;;23.50;101460.00;;;;5047727;28;20211;-76
2022/06/29 01:44:13;;;;;;;1.42;1.00;;;;;23.50;101456.00;;;;5045705;28;20215;-76
2022/06/29 01:46:42;;;;;;;0.77;0.70;;;;;23.50;101444.00;;;;5046582;28;20191;-76
2022/06/29 01:49:10;;;;;;;1.00;0.75;;;;;23.50;101451.00;;;;5055045;28;20214;-76
2022/06/29 01:51:37;;;;;;;1.92;0.90;;;;;23.40;101448.00;;;;5058458;28;20202;-76
2022/06/29 01:54:05;;;;;;;1.42;0.93;;;;;23.40;101450.00;;;;5054012;28;20254;-76
2022/06/29 01:56:32;;;;;;;1.23;0.80;;;;;23.40;101449.00;;;;5052166;28;20207;-76
2022/06/29 01:59:01;;;;;;;1.30;0.73;;;;;23.30;101444.00;;;;5053376;28;20279;-76
2022/06/29 02:01:28;;;;;;;1.50;0.75;;;;;23.30;101447.00;;;;5054802;28;20210;-76
2022/06/29 02:03:55;;;;;;;1.77;0.80;;;;;23.30;101437.00;;;;5057494;28;20202;-76
2022/06/29 02:06:24;;;;;;;2.25;0.90;;;;;23.20;101441.00;;;;5050513;28;20196;-76
2022/06/29 02:08:52;;;;;;;1.80;1.10;;;;;23.20;101427.00;;;;5047963;28;20290;-77
2022/06/29 02:11:19;;;;;;;1.55;1.00;;;;;23.20;101427.00;;;;5052698;28;20191;-77
2022/06/29 02:13:47;;;;;;;2.22;0.80;;;;;23.20;101426.00;;;;5062844;28;20953;-76
2022/06/29 02:16:16;;;;;;;2.10;1.00;;;;;23.20;101428.00;;;;5046960;28;21094;-76
2022/06/29 02:18:43;;;;;;;1.08;0.88;;;;;23.20;101430.00;;;;5065640;28;20203;-76
2022/06/29 02:21:11;;;;;;;1.00;0.88;;;;;23.10;101429.00;;;;5068197;28;20198;-76
2022/06/29 02:23:39;;;;;;;2.25;1.00;;;;;23.10;101430.00;;;;5054606;28;20218;-76
2022/06/29 02:26:06;;;;;;;1.15;0.88;;;;;23.10;101428.00;;;;5048549;28;20202;-76
2022/06/29 02:28:34;;;;;;;3.72;1.10;;;;;23.10;101427.00;;;;5052928;28;20609;-76
2022/06/29 02:36:32;;;;;;;2.33;0.77;;;;;23.00;101428.00;;;;5051906;28;20294;-76
2022/06/29 02:39:01;;;;;;;3.30;1.08;;;;;23.00;101427.00;;;;5052396;28;20635;-76
2022/06/29 02:41:28;;;;;;;2.25;0.90;;;;;23.00;101424.00;;;;5058811;28;20206;-76
2022/06/29 02:43:58;;;;;;;1.90;1.10;;;;;23.00;101423.00;;;;5048568;28;20199;-76
2022/06/29 02:46:25;;;;;;;2.80;0.98;;;;;22.90;101414.00;;;;5053558;28;20196;-76
2022/06/29 02:48:54;;;;;;;0.88;0.70;;;;;22.90;101416.00;;;;5057804;28;20195;-76
2022/06/29 02:51:21;;;;;;;2.78;1.10;;;;;22.90;101411.00;;;;5048005;28;20206;-76
2022/06/29 02:53:49;;;;;;;1.75;0.90;;;;;22.90;101410.00;;;;5055061;28;20230;-76
2022/06/29 02:56:16;;;;;;;1.95;1.00;;;;;22.90;101403.00;;;;5052865;28;20650;-76
2022/06/29 02:58:43;;;;;;;1.60;1.05;;;;;22.80;101403.00;;;;5049495;28;20208;-76
2022/06/29 03:01:10;;;;;;;1.95;0.93;;;;;22.80;101405.00;;;;5051420;28;20191;-76
2022/06/29 03:03:38;;;;;;;1.67;1.00;;;;;22.80;101404.00;;;;5059290;28;20192;-76
2022/06/29 03:06:06;;;;;;;2.50;1.20;;;;;22.70;101400.00;;;;5051024;28;20205;-76
2022/06/29 03:08:34;;;;;;;1.80;1.23;;;;;22.70;101403.00;;;;5059300;28;20574;-76
2022/06/29 03:11:02;;;;;;;1.65;0.90;;;;;22.70;101394.00;;;;5061988;28;20203;-76
2022/06/29 03:13:29;;;;;;;1.17;1.02;;;;;22.70;101398.00;;;;5051072;28;20291;-76
2022/06/29 03:15:56;;;;;;;1.33;1.02;;;;;22.60;101390.00;;;;5052295;28;20219;-76
2022/06/29 03:18:24;;;;;;;1.15;0.90;;;;;22.60;101384.00;;;;5050951;28;20200;-75
2022/06/29 03:20:51;;;;;;;1.60;1.20;;;;;22.60;101388.00;;;;5054054;28;20195;-76
2022/06/29 03:23:19;;;;;;;1.52;0.90;;;;;22.50;101382.00;;;;5050242;28;20195;-76
2022/06/29 03:25:47;;;;;;;1.02;0.77;;;;;22.50;101379.00;;;;5050601;28;20195;-76
2022/06/29 03:28:14;;;;;;;0.77;0.70;;;;;22.50;101380.00;;;;5060610;28;20211;-76
2022/06/29 03:30:41;;;;;;;1.17;0.95;;;;;22.50;101376.00;;;;5062668;28;20294;-76
2022/06/29 03:33:09;;;;;;;1.55;1.10;;;;;22.40;101366.00;;;;5051356;28;20199;-76
2022/06/29 03:35:36;;;;;;;0.80;0.80;;;;;22.40;101358.00;;;;5049756;28;20227;-76
2022/06/29 03:38:03;;;;;;;1.08;0.98;;;;;22.40;101362.00;;;;5050011;28;20204;-76
2022/06/29 03:40:32;;;;;;;1.35;0.90;;;;;22.30;101358.00;;;;5050637;28;20634;-76
2022/06/29 03:42:59;;;;;;;1.50;1.10;;;;;22.30;101360.00;;;;5050087;28;20192;-77
2022/06/29 03:45:27;;;;;;;1.63;0.95;;;;;22.30;101358.00;;;;5050177;28;20191;-74
2022/06/29 03:47:54;;;;;;;1.92;1.10;;;;;22.30;101372.00;;;;5055836;28;20206;-75
2022/06/29 03:50:21;;;;;;;1.02;0.93;;;;;22.20;101351.00;;;;5056718;28;20199;-74
2022/06/29 03:52:49;;;;;;;2.05;0.90;;;;;22.20;101363.00;;;;5051328;28;20740;-75
2022/06/29 03:55:17;;;;;;;1.98;1.00;;;;;22.20;101362.00;;;;5051492;28;20240;-74
2022/06/29 03:57:46;;;;;;;2.15;1.38;;;;;22.10;101358.00;;;;5051629;28;20245;-74
2022/06/29 04:00:14;;;;;;;2.05;0.95;;;;;22.10;101366.00;;;;5050010;28;20206;-75
2022/06/29 04:02:42;;;;;;;2.50;1.02;;;;;22.10;101360.00;;;;5050777;28;20199;-74
2022/06/29 04:05:09;;;;;;;1.90;1.13;;;;;22.10;101365.00;;;;5052007;28;20195;-74
2022/06/29 04:07:37;;;;;;;3.45;1.10;;;;;22.10;101359.00;;;;5050229;28;20222;-75
2022/06/29 04:10:05;;;;;;;1.05;0.95;;;;;22.10;101361.00;;;;5048029;28;20199;-75
2022/06/29 04:12:34;;;;;;;2.67;1.20;;;;;22.00;101361.00;;;;5049840;28;20203;-74
2022/06/29 04:15:04;;;;;;;1.05;0.95;;;;;22.00;101361.00;;;;5050030;28;20227;-74
2022/06/29 04:17:31;;;;;;;1.77;1.17;;;;;22.00;101357.00;;;;5050115;28;20211;-74
2022/06/29 04:19:59;;;;;;;2.53;1.00;;;;;22.00;101360.00;;;;5048223;28;20204;-74
2022/06/29 04:22:26;;;;;;;2.05;1.25;;;;;22.00;101361.00;;;;5049363;28;20199;-75
2022/06/29 04:24:53;;;;;;;0.95;0.80;;;;;22.00;101350.00;;;;5048526;28;20204;-75
2022/06/29 04:27:21;;;;;;;2.17;1.60;;;;;22.00;101350.00;;;;5049756;28;20206;-74
2022/06/29 04:29:48;;;;;;;1.88;1.50;;;;;22.00;101347.00;;;;5048725;28;20270;-75
2022/06/29 04:32:17;;;;;;;1.40;0.90;;;;;22.00;101346.00;;;;5048793;28;20199;-75
2022/06/29 04:34:44;;;;;;;1.20;1.10;;;;;22.10;101348.00;;;;5049473;28;20215;-75
2022/06/29 04:37:11;;;;;;;2.50;1.25;;;;;22.10;101344.00;;;;5047965;28;20192;-74
2022/06/29 04:39:39;;;;;;;1.75;1.40;;;;;22.10;101345.00;;;;5048683;28;20199;-75
2022/06/29 04:42:06;;;;;;;2.15;1.00;;;;;22.20;101350.00;;;;5061106;28;20203;-75
2022/06/29 04:44:36;;;;;;;1.48;1.20;;;;;22.20;101345.00;;;;5049776;28;20199;-75
2022/06/29 04:47:04;;;;;;;1.33;1.17;;;;;22.20;101341.00;;;;5052517;28;20584;-74
2022/06/29 04:49:33;;;;;;;1.70;1.38;;;;;22.30;101339.00;;;;5057319;28;20203;-75
2022/06/29 04:52:00;;;;;;;4.40;1.30;;;;;22.30;101340.00;;;;5048293;28;20213;-75
2022/06/29 04:54:27;;;;;;;1.50;1.40;;;;;22.40;101340.00;;;;5048864;28;20231;-74
2022/06/29 04:56:55;;;;;;;2.38;1.48;;;;;22.40;101337.00;;;;5046738;28;20227;-75
2022/06/29 04:59:22;;;;;;;3.90;1.67;;;;;22.50;101331.00;;;;5050369;28;20195;-74
2022/06/29 05:01:49;;;;;;;3.25;1.48;;;;;22.50;101336.00;;;;5052440;28;20201;-77
2022/06/29 05:04:17;;;;;;;1.73;1.50;;;;;22.60;101332.00;;;;5048074;28;20203;-75
2022/06/29 05:06:46;;;;;;;1.35;1.23;;;;;22.70;101331.00;;;;5050638;28;20558;-75
2022/06/29 05:09:13;;;;;;;1.77;1.23;;;;;22.80;101328.00;;;;5046332;28;20199;-76
2022/06/29 05:11:41;;;;;;;2.10;1.70;;;;;22.80;101321.00;;;;5050732;28;20206;-77
2022/06/29 05:14:09;;;;;;;1.60;1.50;;;;;22.90;101316.00;;;;5060367;28;20199;-76
2022/06/29 05:16:37;;;;;;;1.63;1.52;;;;;23.00;101324.00;;;;5064985;28;20225;-75
2022/06/29 05:19:05;;;;;;;4.97;2.08;;;;;23.00;101328.00;;;;5056132;28;20200;-75
2022/06/29 05:21:32;;;;;;;2.60;1.50;;;;;23.10;101320.00;;;;5051938;28;20203;-74
2022/06/29 05:24:01;;;;;;;1.83;1.60;;;;;23.10;101323.00;;;;5060960;28;20198;-76
2022/06/29 05:26:28;;;;;;;1.70;1.40;;;;;23.20;101329.00;;;;5068845;28;20199;-75
2022/06/29 05:28:56;;;;;;;2.35;1.90;;;;;23.30;101327.00;;;;5067685;28;20199;-77
2022/06/29 05:31:23;;;;;;;3.08;1.95;;;;;23.30;101324.00;;;;5056325;28;20196;-76
2022/06/29 05:33:51;;;;;;;1.40;1.30;;;;;23.40;101323.00;;;;5057547;28;20227;-75
2022/06/29 05:36:18;;;;;;;2.25;1.80;;;;;23.50;101321.00;;;;5058722;28;20227;-75
2022/06/29 05:38:46;;;;;;;3.20;1.63;;;;;23.60;101322.00;;;;5049648;28;20200;-77
2022/06/29 05:41:15;;;;;;;2.22;1.80;;;;;23.60;101327.00;;;;5056830;28;20199;-78
2022/06/29 05:43:43;;;;;;;2.53;2.03;;;;;23.70;101328.00;;;;5068630;28;20210;-78
2022/06/29 05:46:11;;;;;;;1.92;1.65;;;;;23.80;101329.00;;;;5063804;28;20207;-76
2022/06/29 05:48:38;;;;;;;3.40;2.33;;;;;23.80;101323.00;;;;5061446;28;20211;-75
2022/06/29 05:51:06;;;;;;;2.03;1.65;;;;;23.90;101320.00;;;;5048254;28;20200;-75
2022/06/29 05:53:33;;;;;;;2.20;1.90;;;;;24.00;101314.00;;;;5052903;28;20199;-75
2022/06/29 05:56:00;;;;;;;2.78;1.83;;;;;24.10;101306.00;;;;5063717;28;20232;-75
2022/06/29 05:58:30;;;;;;;2.28;2.08;;;;;24.10;101316.00;;;;5049033;28;20282;-75
2022/06/29 06:00:58;;;;;;;3.17;1.67;;;;;24.20;101317.00;;;;5048383;28;20199;-76
2022/06/29 06:03:26;;;;;;;2.95;1.65;;;;;24.30;101317.00;;;;5057825;28;20207;-76
2022/06/29 06:05:53;;;;;;;4.00;2.30;;;;;24.40;101322.00;;;;5048550;28;20203;-76
2022/06/29 06:08:20;;;;;;;2.85;2.15;;;;;24.50;101314.00;;;;5049121;28;20234;-76
2022/06/29 06:10:47;;;;;;;5.53;2.20;;;;;24.60;101319.00;;;;5049040;28;20220;-76
2022/06/29 06:13:15;;;;;;;3.60;1.80;;;;;24.60;101316.00;;;;5061000;28;20206;-76
2022/06/29 06:15:43;;;;;;;1.90;1.75;;;;;24.70;101321.00;;;;5047725;28;20222;-76
2022/06/29 06:18:10;;;;;;;2.38;2.10;;;;;24.80;101325.00;;;;5047587;28;20203;-75
2022/06/29 06:20:38;;;;;;;2.47;1.85;;;;;24.80;101319.00;;;;5057232;28;20199;-74
2022/06/29 06:23:06;;;;;;;2.10;1.85;;;;;24.90;101325.00;;;;5066662;28;20222;-75
2022/06/29 06:25:33;;;;;;;2.53;2.28;;;;;25.00;101330.00;;;;5058604;28;20230;-75
2022/06/29 06:28:01;;;;;;;2.50;2.15;;;;;25.10;101330.00;;;;5047974;28;20203;-75
2022/06/29 06:30:32;;;;;;;3.60;2.47;;;;;25.10;101324.00;;;;5052843;28;20221;-75
2022/06/29 06:33:01;;;;;;;3.20;2.38;;;;;25.20;101318.00;;;;5067468;28;20201;-75
2022/06/29 06:35:28;;;;;;;2.10;1.90;;;;;25.30;101317.00;;;;5068066;28;20195;-75
2022/06/29 06:37:55;;;;;;;2.15;1.90;;;;;25.40;101312.00;;;;5063681;28;20203;-75
2022/06/29 06:43:07;;;;;;;2.63;2.42;;;;;25.50;101321.00;;;;5052660;28;20607;-75
2022/06/29 06:45:35;;;;;;;2.65;2.20;;;;;25.60;101320.00;;;;5070027;28;20191;-76
2022/06/29 06:48:04;;;;;;;2.42;2.20;;;;;25.70;101314.00;;;;5071602;28;20206;-75
2022/06/29 06:50:31;;;;;;;2.25;2.05;;;;;25.80;101321.00;;;;5071567;28;20264;-75
2022/06/29 06:52:58;;;;;;;4.03;2.25;;;;;25.90;101315.00;;;;5071930;28;20203;-76
2022/06/29 06:55:26;;;;;;;3.30;2.20;;;;;26.00;101314.00;;;;5071102;28;20215;-75
2022/06/29 06:57:53;;;;;;;3.80;2.30;;;;;26.10;101318.00;;;;5054136;28;20234;-76
2022/06/29 07:00:20;;;;;;;3.63;2.60;;;;;26.20;101318.00;;;;5051666;28;20195;-76
2022/06/29 07:02:47;;;;;;;3.92;2.53;;;;;26.30;101317.00;;;;5051872;28;20215;-76
2022/06/29 07:05:17;;;;;;;3.47;2.40;;;;;26.40;101311.00;;;;5051294;28;20199;-76
2022/06/29 07:07:44;;;;;;;3.80;2.20;;;;;26.50;101320.00;;;;5054074;28;20195;-76
2022/06/29 07:10:12;;;;;;;2.60;1.95;;;;;26.60;101315.00;;;;5051645;28;20199;-75
2022/06/29 07:12:39;;;;;;;3.83;2.40;;;;;26.80;101310.00;;;;5054465;28;20223;-75
2022/06/29 07:15:07;;;;;;;2.35;2.15;;;;;26.90;101307.00;;;;5052759;28;20199;-76
2022/06/29 07:17:34;;;;;;;3.80;2.58;;;;;27.00;101312.00;;;;5051755;28;20223;-76
2022/06/29 07:20:02;;;;;;;2.88;2.58;;;;;27.10;101310.00;;;;5066054;28;21103;-76
2022/06/29 07:22:30;;;;;;;3.35;3.00;;;;;27.20;101314.00;;;;5071058;28;20187;-75
2022/06/29 07:24:58;;;;;;;4.35;3.20;;;;;27.30;101314.00;;;;5070922;28;20561;-76
2022/06/29 07:27:25;;;;;;;3.25;2.88;;;;;27.40;101318.00;;;;5055426;28;20207;-76
2022/06/29 07:29:52;;;;;;;4.57;2.47;;;;;27.50;101309.00;;;;5059017;28;20550;-76
2022/06/29 07:32:20;;;;;;;4.95;2.92;;;;;27.60;101314.00;;;;5065360;28;20194;-76
2022/06/29 07:34:47;;;;;;;1.92;1.83;;;;;27.70;101328.00;;;;5065018;28;20200;-76
2022/06/29 07:37:14;;;;;;;2.70;2.22;;;;;27.80;101317.00;;;;5050442;28;20306;-77
2022/06/29 07:39:43;;;;;;;5.10;2.80;;;;;27.90;101325.00;;;;5050571;28;20208;-76
2022/06/29 07:42:11;;;;;;;3.08;2.75;;;;;28.00;101319.00;;;;5050348;28;20661;-76
2022/06/29 07:44:38;;;;;;;8.60;3.28;;;;;28.10;101318.00;;;;5050797;28;20203;-76
2022/06/29 07:47:05;;;;;;;3.13;2.25;;;;;28.30;101321.00;;;;5052286;28;20203;-77
2022/06/29 07:49:33;;;;;;;4.93;2.70;;;;;28.40;101318.00;;;;5048297;28;20191;-77
2022/06/29 07:52:01;;;;;;;2.90;2.10;;;;;28.50;101320.00;;;;5053196;28;20207;-77
2022/06/29 07:54:28;;;;;;;2.53;2.33;;;;;28.60;101317.00;;;;5050017;28;20234;-77
2022/06/29 07:56:57;;;;;;;8.20;2.08;;;;;28.70;101312.00;;;;5049772;28;20234;-75
2022/06/29 07:59:24;;;;;;;2.60;2.30;;;;;28.80;101312.00;;;;5052168;28;20207;-74
2022/06/29 08:01:52;;;;;;;2.00;1.80;;;;;28.80;101314.00;;;;5065301;28;20206;-75
2022/06/29 08:04:19;;;;;;;2.65;2.38;;;;;28.90;101314.00;;;;5056374;28;20196;-75
2022/06/29 08:06:47;;;;;;;2.60;2.00;;;;;29.00;101311.00;;;;5059095;28;20199;-75
2022/06/29 08:09:14;;;;;;;2.33;2.10;;;;;29.00;101319.00;;;;5052813;28;20199;-75
2022/06/29 08:11:42;;;;;;;4.07;1.70;;;;;29.10;101313.00;;;;5051026;28;20207;-75
2022/06/29 08:14:10;;;;;;;2.67;2.13;;;;;29.20;101316.00;;;;5055272;28;20196;-75
2022/06/29 08:16:38;;;;;;;2.50;1.80;;;;;29.40;101318.00;;;;5069347;28;20219;-75
2022/06/29 08:19:05;;;;;;;4.28;1.90;;;;;29.50;101315.00;;;;5068352;28;20583;-75
2022/06/29 08:21:33;;;;;;;3.92;1.90;;;;;29.60;101311.00;;;;5060146;28;20206;-75
2022/06/29 08:24:00;;;;;;;2.92;1.98;;;;;29.70;101309.00;;;;5065116;28;20202;-75
2022/06/29 08:26:28;;;;;;;3.20;2.22;;;;;29.70;101306.00;;;;5054994;28;20204;-75
2022/06/29 08:28:55;;;;;;;2.50;2.30;;;;;29.80;101312.00;;;;5051283;28;20631;-75
2022/06/29 08:31:24;;;;;;;2.03;1.70;;;;;29.80;101309.00;;;;5055823;28;20222;-75
2022/06/29 08:33:51;;;;;;;2.95;1.80;;;;;29.90;101309.00;;;;5049390;28;20230;-76
2022/06/29 08:36:19;;;;;;;3.15;1.98;;;;;29.90;101310.00;;;;5063602;28;20202;-75
2022/06/29 08:38:46;;;;;;;4.18;1.77;;;;;29.90;101312.00;;;;5059402;28;20210;-76
2022/06/29 08:41:14;;;;;;;3.67;1.80;;;;;29.80;101315.00;;;;5069393;28;20203;-76
2022/06/29 08:43:42;;;;;;;2.28;1.65;;;;;29.80;101306.00;;;;5068652;28;20203;-76
2022/06/29 08:46:13;;;;;;;2.05;1.73;;;;;29.80;101310.00;;;;5062526;28;20662;-76
2022/06/29 08:48:42;;;;;;;2.25;1.70;;;;;29.80;101311.00;;;;5054248;28;20253;-76
2022/06/29 08:51:14;;;;;;;2.78;1.92;;;;;29.90;101310.00;;;;5048752;28;20677;-76
2022/06/29 08:53:42;;;;;;;2.47;1.95;;;;;30.10;101303.00;;;;5055317;28;20218;-75
2022/06/29 08:56:10;;;;;;;1.65;1.48;;;;;30.20;101318.00;;;;5051845;28;20218;-75
2022/06/29 08:58:40;;;;;;;2.25;1.65;;;;;30.30;101309.00;;;;5048999;28;20205;-75
2022/06/29 09:01:08;;;;;;;2.10;1.88;;;;;30.40;101309.00;;;;5048327;28;20192;-75
2022/06/29 09:03:36;;;;;;;1.88;1.67;;;;;30.50;101311.00;;;;5048306;28;20195;-75
2022/06/29 09:06:06;;;;;;;2.15;1.55;;;;;30.70;101304.00;;;;5049224;28;20234;-75
2022/06/29 09:08:34;;;;;;;2.45;1.80;;;;;30.80;101312.00;;;;5049106;28;20246;-75
2022/06/29 09:11:23;;;;;;;1.58;1.48;;;;;30.90;101303.00;;;;5054004;28;20192;-76
2022/06/29 09:14:10;;;;;;;1.40;1.30;;;;;31.00;101314.00;;;;5051292;28;20187;-76
2022/06/29 09:16:58;;;;;;;1.60;1.33;;;;;31.10;101305.00;;;;5048704;28;20215;-76
2022/06/29 09:19:30;;;;;;;3.85;1.58;;;;;31.40;101309.00;;;;5049001;28;20196;-76
2022/06/29 09:21:59;;;;;;;4.53;1.88;;;;;31.50;101306.00;;;;5047789;28;20650;-76
2022/06/29 09:24:29;;;;;;;1.73;1.48;;;;;31.60;101314.00;;;;5048401;28;20723;-76
2022/06/29 09:26:58;;;;;;;1.92;1.48;;;;;31.70;101313.00;;;;5047384;28;20219;-76
2022/06/29 09:29:27;;;;;;;5.80;2.30;;;;;31.80;101310.00;;;;5047605;28;20211;-76
2022/06/29 09:32:16;;;;;;;1.27;1.17;;;;;31.80;101310.00;;;;5046026;28;20619;-76
2022/06/29 09:34:46;;;;;;;1.63;1.52;;;;;31.90;101312.00;;;;5056046;28;20581;-75
2022/06/29 09:37:16;;;;;;;1.88;1.45;;;;;32.00;101308.00;;;;5048283;28;20230;-76
2022/06/29 09:39:46;;;;;;;1.33;1.17;;;;;32.10;101306.00;;;;5047452;28;20211;-76
2022/06/29 09:42:15;;;;;;;2.78;1.75;;;;;32.20;101304.00;;;;5051544;28;20996;-76
2022/06/29 09:44:43;;;;;;;4.28;1.75;;;;;32.30;101301.00;;;;5054300;28;20196;-75
2022/06/29 09:47:14;;;;;;;3.17;1.95;;;;;32.30;101305.00;;;;5054695;28;20199;-75
2022/06/29 09:49:43;;;;;;;2.80;1.95;;;;;32.40;101301.00;;;;5054377;28;20195;-76
2022/06/29 09:52:11;;;;;;;2.17;1.90;;;;;32.50;101303.00;;;;5049582;28;20192;-76
2022/06/29 09:54:45;;;;;;;2.13;1.38;;;;;32.60;101301.00;;;;5047059;28;20545;-77
2022/06/29 09:57:13;;;;;;;2.67;1.63;;;;;32.60;101296.00;;;;5048840;28;20230;-77
2022/06/29 10:02:44;;;;;;;2.08;1.50;;;;;32.80;101302.00;;;;5010470;28;20741;-76
2022/06/29 10:05:13;;;;;;;4.28;1.52;;;;;32.80;101301.00;;;;5045853;28;20199;-76
2022/06/29 10:07:42;;;;;;;2.13;1.48;;;;;32.80;101291.00;;;;5057711;28;20196;-76
2022/06/29 10:10:13;;;;;;;1.33;1.20;;;;;32.90;101290.00;;;;5047997;28;20824;-76
2022/06/29 10:16:15;;;;;;;2.72;1.65;;;;;32.90;101295.00;;;;5046333;28;20679;-75
2022/06/29 10:18:54;;;;;;;1.90;1.35;;;;;33.00;101291.00;;;;5045738;28;20241;-76
2022/06/29 10:21:25;;;;;;;2.63;1.75;;;;;33.10;101290.00;;;;5050463;28;20198;-75
2022/06/29 10:23:54;;;;;;;2.08;1.70;;;;;33.20;101286.00;;;;5047483;28;20732;-77
2022/06/29 10:26:45;;;;;;;3.25;1.75;;;;;33.10;101287.00;;;;5047598;28;20555;-76
2022/06/29 10:29:34;;;;;;;2.55;2.00;;;;;33.20;101286.00;;;;5044888;28;20219;-75
2022/06/29 10:32:19;;;;;;;2.00;1.73;;;;;33.20;101289.00;;;;5051614;28;20280;-76
2022/06/29 10:37:33;;;;;;;3.20;2.00;;;;;33.30;101278.00;;;;5057147;28;20232;-74
2022/06/29 10:40:04;;;;;;;1.63;1.50;;;;;33.40;101280.00;;;;5065405;28;20748;-76
2022/06/29 10:45:49;;;;;;;1.85;1.65;;;;;33.50;101285.00;;;;5059437;28;20590;-75
2022/06/29 10:48:20;;;;;;;2.70;1.90;;;;;33.60;101280.00;;;;5042745;28;20851;-75
2022/06/29 10:50:47;;;;;;;1.55;1.45;;;;;33.70;101272.00;;;;5049983;28;20195;-77
2022/06/29 10:53:17;;;;;;;2.17;1.90;;;;;33.80;101263.00;;;;5047971;28;20206;-75
2022/06/29 10:55:47;;;;;;;1.42;1.25;;;;;33.80;101265.00;;;;5054726;28;20314;-74
2022/06/29 10:58:17;;;;;;;1.70;1.60;;;;;33.90;101264.00;;;;5064822;28;20215;-74
2022/06/29 11:00:45;;;;;;;1.45;1.35;;;;;33.90;101256.00;;;;5046379;28;20195;-75
2022/06/29 11:03:17;;;;;;;3.20;1.40;;;;;33.90;101250.00;;;;5047526;28;20600;-74
2022/06/29 11:15:39;;;;;;;1.73;1.00;;;;;33.90;101251.00;;;;5047237;28;20236;-74
2022/06/29 11:16:55;;;;;;;1.20;1.02;;;;;33.80;101250.00;;;;5046699;28;20262;-75
2022/06/29 11:19:34;;;;;;;2.50;1.13;;;;;33.80;101245.00;;;;5047286;28;20186;-75
2022/06/29 11:22:13;;;;;;;1.30;0.90;;;;;33.70;101245.00;;;;5058760;28;20199;-74
2022/06/29 11:24:58;;;;;;;0.80;0.80;;;;;33.60;101254.00;;;;5067072;28;20228;-75
2022/06/29 11:27:35;;;;;;;1.00;0.90;;;;;33.60;101246.00;;;;5063123;28;20286;-74
2022/06/29 11:30:05;;;;;;;1.40;0.93;;;;;33.60;101247.00;;;;5061879;28;20224;-74
2022/06/29 11:32:38;;;;;;;1.17;1.08;;;;;33.60;101246.00;;;;5059253;28;20194;-75
2022/06/29 11:35:07;;;;;;;2.80;1.05;;;;;33.60;101246.00;;;;5054435;28;20195;-76
2022/06/29 11:37:35;;;;;;;1.77;1.20;;;;;33.60;101249.00;;;;5056716;28;20207;-75
2022/06/29 11:40:02;;;;;;;1.10;1.00;;;;;33.60;101242.00;;;;5069764;28;20202;-75
2022/06/29 11:45:20;;;;;;;3.75;1.30;;;;;33.60;101238.00;;;;5056039;28;20655;-75
2022/06/29 11:47:52;;;;;;;2.65;1.23;;;;;33.60;101239.00;;;;5065183;28;20198;-76
2022/06/29 11:50:20;;;;;;;1.17;1.05;;;;;33.60;101237.00;;;;5056810;28;20198;-75
2022/06/29 11:52:49;;;;;;;2.72;1.05;;;;;33.70;101228.00;;;;5051967;28;20195;-76
2022/06/29 11:55:37;;;;;;;1.42;1.30;;;;;33.70;101220.00;;;;5055008;28;20219;-76
2022/06/29 11:58:04;;;;;;;1.25;1.10;;;;;33.70;101216.00;;;;5056766;28;20225;-75
2022/06/29 12:00:33;;;;;;;2.05;0.93;;;;;33.70;101214.00;;;;5055575;28;20210;-75
2022/06/29 12:03:02;;;;;;;1.20;1.00;;;;;33.70;101211.00;;;;5059679;28;20198;-76
2022/06/29 12:05:29;;;;;;;1.20;1.00;;;;;33.80;101217.00;;;;5053832;28;20190;-75
2022/06/29 12:07:57;;;;;;;1.67;1.08;;;;;33.80;101222.00;;;;5050051;28;20278;-76
2022/06/29 12:10:24;;;;;;;0.88;0.85;;;;;33.70;101216.00;;;;5062452;28;20190;-76
2022/06/29 12:12:51;;;;;;;1.10;1.00;;;;;33.80;101215.00;;;;5070081;28;20194;-75
2022/06/29 12:15:19;;;;;;;3.67;1.33;;;;;33.80;101218.00;;;;5067956;28;20262;-75
2022/06/29 12:17:47;;;;;;;1.42;1.10;;;;;33.80;101218.00;;;;5069204;28;20222;-75
2022/06/29 12:20:15;;;;;;;2.05;1.13;;;;;33.80;101217.00;;;;5058944;28;20200;-75
2022/06/29 12:22:42;;;;;;;1.60;1.10;;;;;33.80;101210.00;;;;5048761;28;20209;-76
2022/06/29 12:25:10;;;;;;;1.20;1.08;;;;;33.80;101212.00;;;;5048107;28;21310;-76
2022/06/29 12:27:37;;;;;;;1.63;1.08;;;;;33.80;101217.00;;;;5049738;28;20195;-76
2022/06/29 12:30:06;;;;;;;2.45;1.42;;;;;33.70;101206.00;;;;5063185;28;20979;-76
2022/06/29 12:32:33;;;;;;;1.52;1.38;;;;;33.70;101201.00;;;;5055120;28;20211;-76
2022/06/29 12:35:02;;;;;;;5.00;1.60;;;;;33.60;101203.00;;;;5056892;28;20203;-76
2022/06/29 12:37:30;;;;;;;1.20;0.80;;;;;33.60;101211.00;;;;5052353;28;20195;-76
2022/06/29 12:39:57;;;;;;;1.45;1.30;;;;;33.60;101205.00;;;;5052378;28;20568;-76
2022/06/29 12:42:24;;;;;;;1.92;1.25;;;;;33.60;101209.00;;;;5052904;28;20195;-78
2022/06/29 12:44:52;;;;;;;1.40;1.27;;;;;33.50;101206.00;;;;5049355;28;20198;-78
2022/06/29 12:47:19;;;;;;;2.65;1.00;;;;;33.50;101202.00;;;;5049461;28;20195;-77